sensor_id;sensor_type;location;lat;lon;timestamp;P1;durP1;ratioP1;P2;durP2;ratioP2
53263;SDS011;39153;52.680;6.172;2023-12-20T00:01:00;15.35;;;1.77;;
53263;SDS011;39153;52.680;6.172;2023-12-20T00:03:26;15.13;;;2.00;;
53263;SDS011;39153;52.680;6.172;2023-12-20T00:05:51;16.13;;;2.20;;
53263;SDS011;39153;52.680;6.172;2023-12-20T00:08:17;7.18;;;1.50;;
53263;SDS011;39153;52.680;6.172;2023-12-20T00:10:43;13.88;;;1.70;;
53263;SDS011;39153;52.680;6.172;2023-12-20T00:13:09;13.50;;;1.33;;
53263;SDS011;39153;52.680;6.172;2023-12-20T00:15:35;9.95;;;1.38;;
53263;SDS011;39153;52.680;6.172;2023-12-20T00:18:01;10.85;;;1.65;;
53263;SDS011;39153;52.680;6.172;2023-12-20T00:20:27;15.93;;;1.50;;
53263;SDS011;39153;52.680;6.172;2023-12-20T00:22:57;13.00;;;2.60;;
53263;SDS011;39153;52.680;6.172;2023-12-20T00:25:23;13.65;;;2.13;;
53263;SDS011;39153;52.680;6.172;2023-12-20T00:27:49;9.55;;;1.88;;
53263;SDS011;39153;52.680;6.172;2023-12-20T00:30:15;13.82;;;1.60;;
53263;SDS011;39153;52.680;6.172;2023-12-20T00:32:40;13.73;;;1.98;;
53263;SDS011;39153;52.680;6.172;2023-12-20T00:35:14;12.40;;;1.48;;
53263;SDS011;39153;52.680;6.172;2023-12-20T00:37:41;7.70;;;1.50;;
53263;SDS011;39153;52.680;6.172;2023-12-20T00:40:07;11.27;;;1.98;;
53263;SDS011;39153;52.680;6.172;2023-12-20T00:42:33;17.83;;;2.10;;
53263;SDS011;39153;52.680;6.172;2023-12-20T00:44:59;15.82;;;2.45;;
53263;SDS011;39153;52.680;6.172;2023-12-20T00:47:25;17.85;;;1.92;;
53263;SDS011;39153;52.680;6.172;2023-12-20T00:49:51;17.60;;;2.47;;
53263;SDS011;39153;52.680;6.172;2023-12-20T00:52:17;9.82;;;2.17;;
53263;SDS011;39153;52.680;6.172;2023-12-20T00:54:43;24.67;;;1.85;;
53263;SDS011;39153;52.680;6.172;2023-12-20T00:57:09;13.23;;;2.20;;
53263;SDS011;39153;52.680;6.172;2023-12-20T00:59:35;25.08;;;2.42;;
53263;SDS011;39153;52.680;6.172;2023-12-20T01:02:01;15.85;;;2.20;;
53263;SDS011;39153;52.680;6.172;2023-12-20T01:04:26;17.63;;;2.08;;
53263;SDS011;39153;52.680;6.172;2023-12-20T01:06:52;15.57;;;2.70;;
53263;SDS011;39153;52.680;6.172;2023-12-20T01:09:18;23.30;;;2.30;;
53263;SDS011;39153;52.680;6.172;2023-12-20T01:11:44;16.23;;;2.08;;
53263;SDS011;39153;52.680;6.172;2023-12-20T01:14:11;20.38;;;2.40;;
53263;SDS011;39153;52.680;6.172;2023-12-20T01:16:37;13.45;;;2.72;;
53263;SDS011;39153;52.680;6.172;2023-12-20T01:19:03;20.75;;;2.10;;
53263;SDS011;39153;52.680;6.172;2023-12-20T01:21:28;16.35;;;1.90;;
53263;SDS011;39153;52.680;6.172;2023-12-20T01:23:54;13.38;;;2.13;;
53263;SDS011;39153;52.680;6.172;2023-12-20T01:26:20;15.10;;;2.20;;
53263;SDS011;39153;52.680;6.172;2023-12-20T01:28:45;17.85;;;2.20;;
53263;SDS011;39153;52.680;6.172;2023-12-20T01:31:11;17.83;;;2.13;;
53263;SDS011;39153;52.680;6.172;2023-12-20T01:33:37;11.40;;;1.95;;
53263;SDS011;39153;52.680;6.172;2023-12-20T01:36:03;10.48;;;1.23;;
53263;SDS011;39153;52.680;6.172;2023-12-20T01:38:29;19.55;;;2.42;;
53263;SDS011;39153;52.680;6.172;2023-12-20T01:40:54;14.90;;;1.95;;
53263;SDS011;39153;52.680;6.172;2023-12-20T01:43:20;16.25;;;1.77;;
53263;SDS011;39153;52.680;6.172;2023-12-20T01:45:46;9.93;;;1.85;;
53263;SDS011;39153;52.680;6.172;2023-12-20T01:48:12;16.48;;;2.25;;
53263;SDS011;39153;52.680;6.172;2023-12-20T01:50:40;15.63;;;2.05;;
53263;SDS011;39153;52.680;6.172;2023-12-20T01:53:07;16.52;;;2.42;;
53263;SDS011;39153;52.680;6.172;2023-12-20T01:55:36;17.92;;;3.95;;
53263;SDS011;39153;52.680;6.172;2023-12-20T01:58:05;12.95;;;1.98;;
53263;SDS011;39153;52.680;6.172;2023-12-20T02:00:34;14.23;;;1.85;;
53263;SDS011;39153;52.680;6.172;2023-12-20T02:03:01;13.50;;;1.98;;
53263;SDS011;39153;52.680;6.172;2023-12-20T02:05:28;12.75;;;1.58;;
53263;SDS011;39153;52.680;6.172;2023-12-20T02:07:57;11.10;;;1.88;;
53263;SDS011;39153;52.680;6.172;2023-12-20T02:10:23;12.93;;;1.73;;
53263;SDS011;39153;52.680;6.172;2023-12-20T02:12:50;16.45;;;2.15;;
53263;SDS011;39153;52.680;6.172;2023-12-20T02:15:15;20.75;;;3.03;;
53263;SDS011;39153;52.680;6.172;2023-12-20T02:17:41;24.85;;;2.92;;
53263;SDS011;39153;52.680;6.172;2023-12-20T02:20:08;13.98;;;2.30;;
53263;SDS011;39153;52.680;6.172;2023-12-20T02:22:34;23.45;;;2.92;;
53263;SDS011;39153;52.680;6.172;2023-12-20T02:24:59;17.00;;;3.10;;
53263;SDS011;39153;52.680;6.172;2023-12-20T02:27:25;19.52;;;2.92;;
53263;SDS011;39153;52.680;6.172;2023-12-20T02:29:50;14.15;;;2.40;;
53263;SDS011;39153;52.680;6.172;2023-12-20T02:32:17;24.90;;;3.78;;
53263;SDS011;39153;52.680;6.172;2023-12-20T02:34:43;19.98;;;2.30;;
53263;SDS011;39153;52.680;6.172;2023-12-20T02:37:09;18.00;;;2.90;;
53263;SDS011;39153;52.680;6.172;2023-12-20T02:39:34;22.92;;;2.97;;
53263;SDS011;39153;52.680;6.172;2023-12-20T02:42:00;17.80;;;2.78;;
53263;SDS011;39153;52.680;6.172;2023-12-20T02:44:26;19.63;;;3.17;;
53263;SDS011;39153;52.680;6.172;2023-12-20T02:46:51;23.45;;;2.85;;
53263;SDS011;39153;52.680;6.172;2023-12-20T02:49:17;20.25;;;2.53;;
53263;SDS011;39153;52.680;6.172;2023-12-20T02:51:43;27.67;;;3.28;;
53263;SDS011;39153;52.680;6.172;2023-12-20T02:54:09;26.38;;;3.25;;
53263;SDS011;39153;52.680;6.172;2023-12-20T02:56:34;23.45;;;3.13;;
53263;SDS011;39153;52.680;6.172;2023-12-20T02:59:00;29.40;;;2.78;;
53263;SDS011;39153;52.680;6.172;2023-12-20T03:01:26;24.20;;;2.90;;
53263;SDS011;39153;52.680;6.172;2023-12-20T03:03:52;23.40;;;3.72;;
53263;SDS011;39153;52.680;6.172;2023-12-20T03:06:18;14.48;;;2.95;;
53263;SDS011;39153;52.680;6.172;2023-12-20T03:08:44;23.48;;;3.55;;
53263;SDS011;39153;52.680;6.172;2023-12-20T03:11:10;23.52;;;2.95;;
53263;SDS011;39153;52.680;6.172;2023-12-20T03:13:36;26.92;;;3.83;;
53263;SDS011;39153;52.680;6.172;2023-12-20T03:16:07;21.08;;;3.53;;
53263;SDS011;39153;52.680;6.172;2023-12-20T03:18:36;21.98;;;3.05;;
53263;SDS011;39153;52.680;6.172;2023-12-20T03:21:02;21.08;;;3.17;;
53263;SDS011;39153;52.680;6.172;2023-12-20T03:23:29;18.75;;;2.72;;
53263;SDS011;39153;52.680;6.172;2023-12-20T03:25:57;24.00;;;3.65;;
53263;SDS011;39153;52.680;6.172;2023-12-20T03:28:26;23.02;;;3.08;;
53263;SDS011;39153;52.680;6.172;2023-12-20T03:30:52;26.90;;;3.58;;
53263;SDS011;39153;52.680;6.172;2023-12-20T03:33:18;28.83;;;4.05;;
53263;SDS011;39153;52.680;6.172;2023-12-20T03:35:44;22.08;;;3.63;;
53263;SDS011;39153;52.680;6.172;2023-12-20T03:38:09;25.23;;;3.15;;
53263;SDS011;39153;52.680;6.172;2023-12-20T03:40:35;31.40;;;3.40;;
53263;SDS011;39153;52.680;6.172;2023-12-20T03:43:01;20.60;;;3.13;;
53263;SDS011;39153;52.680;6.172;2023-12-20T03:45:26;19.70;;;2.70;;
53263;SDS011;39153;52.680;6.172;2023-12-20T03:47:52;26.60;;;3.40;;
53263;SDS011;39153;52.680;6.172;2023-12-20T03:50:25;30.15;;;4.65;;
53263;SDS011;39153;52.680;6.172;2023-12-20T03:52:51;23.02;;;3.47;;
53263;SDS011;39153;52.680;6.172;2023-12-20T03:55:17;22.80;;;3.72;;
53263;SDS011;39153;52.680;6.172;2023-12-20T03:57:43;23.95;;;3.45;;
53263;SDS011;39153;52.680;6.172;2023-12-20T04:00:08;24.40;;;3.17;;
53263;SDS011;39153;52.680;6.172;2023-12-20T04:02:38;20.80;;;3.17;;
53263;SDS011;39153;52.680;6.172;2023-12-20T04:05:05;30.10;;;3.88;;
53263;SDS011;39153;52.680;6.172;2023-12-20T04:07:31;21.05;;;2.70;;
53263;SDS011;39153;52.680;6.172;2023-12-20T04:09:57;23.35;;;3.58;;
53263;SDS011;39153;52.680;6.172;2023-12-20T04:12:23;22.73;;;2.92;;
53263;SDS011;39153;52.680;6.172;2023-12-20T04:14:48;17.55;;;3.33;;
53263;SDS011;39153;52.680;6.172;2023-12-20T04:17:17;23.08;;;3.28;;
53263;SDS011;39153;52.680;6.172;2023-12-20T04:19:43;22.70;;;3.22;;
53263;SDS011;39153;52.680;6.172;2023-12-20T04:22:08;21.85;;;3.08;;
53263;SDS011;39153;52.680;6.172;2023-12-20T04:24:34;24.50;;;2.83;;
53263;SDS011;39153;52.680;6.172;2023-12-20T04:27:00;23.80;;;3.15;;
53263;SDS011;39153;52.680;6.172;2023-12-20T04:29:26;18.20;;;3.13;;
53263;SDS011;39153;52.680;6.172;2023-12-20T04:31:52;26.08;;;3.53;;
53263;SDS011;39153;52.680;6.172;2023-12-20T04:34:17;15.30;;;2.50;;
53263;SDS011;39153;52.680;6.172;2023-12-20T04:36:43;26.55;;;3.60;;
53263;SDS011;39153;52.680;6.172;2023-12-20T04:39:09;30.30;;;4.15;;
53263;SDS011;39153;52.680;6.172;2023-12-20T04:41:36;22.65;;;3.20;;
53263;SDS011;39153;52.680;6.172;2023-12-20T04:44:02;22.73;;;3.92;;
53263;SDS011;39153;52.680;6.172;2023-12-20T04:46:27;24.13;;;3.85;;
53263;SDS011;39153;52.680;6.172;2023-12-20T04:48:53;23.00;;;3.20;;
53263;SDS011;39153;52.680;6.172;2023-12-20T04:51:19;34.08;;;5.10;;
53263;SDS011;39153;52.680;6.172;2023-12-20T04:53:45;25.98;;;3.40;;
53263;SDS011;39153;52.680;6.172;2023-12-20T04:56:10;33.50;;;4.22;;
53263;SDS011;39153;52.680;6.172;2023-12-20T04:58:36;24.38;;;3.50;;
53263;SDS011;39153;52.680;6.172;2023-12-20T05:01:03;24.15;;;3.53;;
53263;SDS011;39153;52.680;6.172;2023-12-20T05:03:30;22.20;;;3.42;;
53263;SDS011;39153;52.680;6.172;2023-12-20T05:05:56;27.25;;;3.60;;
53263;SDS011;39153;52.680;6.172;2023-12-20T05:08:21;19.15;;;3.42;;
53263;SDS011;39153;52.680;6.172;2023-12-20T05:10:47;20.98;;;3.13;;
53263;SDS011;39153;52.680;6.172;2023-12-20T05:13:13;25.40;;;3.63;;
53263;SDS011;39153;52.680;6.172;2023-12-20T05:15:39;21.58;;;3.38;;
53263;SDS011;39153;52.680;6.172;2023-12-20T05:18:04;18.23;;;2.72;;
53263;SDS011;39153;52.680;6.172;2023-12-20T05:20:30;23.70;;;4.20;;
53263;SDS011;39153;52.680;6.172;2023-12-20T05:22:56;25.30;;;3.25;;
53263;SDS011;39153;52.680;6.172;2023-12-20T05:25:21;24.95;;;2.83;;
53263;SDS011;39153;52.680;6.172;2023-12-20T05:27:47;26.83;;;2.85;;
53263;SDS011;39153;52.680;6.172;2023-12-20T05:30:13;30.73;;;3.85;;
53263;SDS011;39153;52.680;6.172;2023-12-20T05:32:39;25.58;;;3.78;;
53263;SDS011;39153;52.680;6.172;2023-12-20T05:35:05;24.98;;;3.75;;
53263;SDS011;39153;52.680;6.172;2023-12-20T05:37:31;18.90;;;3.78;;
53263;SDS011;39153;52.680;6.172;2023-12-20T05:39:56;22.83;;;3.58;;
53263;SDS011;39153;52.680;6.172;2023-12-20T05:42:22;23.02;;;3.10;;
53263;SDS011;39153;52.680;6.172;2023-12-20T05:44:48;24.58;;;3.92;;
53263;SDS011;39153;52.680;6.172;2023-12-20T05:47:13;27.67;;;3.65;;
53263;SDS011;39153;52.680;6.172;2023-12-20T05:49:39;23.15;;;3.35;;
53263;SDS011;39153;52.680;6.172;2023-12-20T05:52:05;24.33;;;2.95;;
53263;SDS011;39153;52.680;6.172;2023-12-20T05:54:31;25.85;;;2.90;;
53263;SDS011;39153;52.680;6.172;2023-12-20T05:56:56;21.00;;;3.35;;
53263;SDS011;39153;52.680;6.172;2023-12-20T05:59:22;15.43;;;2.60;;
53263;SDS011;39153;52.680;6.172;2023-12-20T06:01:48;21.27;;;3.25;;
53263;SDS011;39153;52.680;6.172;2023-12-20T06:04:13;22.75;;;3.75;;
53263;SDS011;39153;52.680;6.172;2023-12-20T06:06:42;23.33;;;3.88;;
53263;SDS011;39153;52.680;6.172;2023-12-20T06:09:08;26.80;;;2.97;;
53263;SDS011;39153;52.680;6.172;2023-12-20T06:11:34;19.33;;;2.60;;
53263;SDS011;39153;52.680;6.172;2023-12-20T06:14:00;12.73;;;2.50;;
53263;SDS011;39153;52.680;6.172;2023-12-20T06:16:26;19.77;;;3.05;;
53263;SDS011;39153;52.680;6.172;2023-12-20T06:18:51;21.52;;;3.50;;
53263;SDS011;39153;52.680;6.172;2023-12-20T06:21:17;21.38;;;2.95;;
53263;SDS011;39153;52.680;6.172;2023-12-20T06:23:43;29.02;;;3.60;;
53263;SDS011;39153;52.680;6.172;2023-12-20T06:26:08;22.00;;;3.25;;
53263;SDS011;39153;52.680;6.172;2023-12-20T06:28:34;23.48;;;3.00;;
53263;SDS011;39153;52.680;6.172;2023-12-20T06:31:00;19.85;;;2.85;;
53263;SDS011;39153;52.680;6.172;2023-12-20T06:33:26;21.75;;;4.43;;
53263;SDS011;39153;52.680;6.172;2023-12-20T06:35:52;20.58;;;3.17;;
53263;SDS011;39153;52.680;6.172;2023-12-20T06:38:17;23.85;;;3.20;;
53263;SDS011;39153;52.680;6.172;2023-12-20T06:40:44;19.20;;;3.22;;
53263;SDS011;39153;52.680;6.172;2023-12-20T06:43:10;22.67;;;4.43;;
53263;SDS011;39153;52.680;6.172;2023-12-20T06:45:37;23.13;;;3.35;;
53263;SDS011;39153;52.680;6.172;2023-12-20T06:48:03;21.25;;;2.85;;
53263;SDS011;39153;52.680;6.172;2023-12-20T06:50:28;19.45;;;2.67;;
53263;SDS011;39153;52.680;6.172;2023-12-20T06:52:54;23.45;;;3.75;;
53263;SDS011;39153;52.680;6.172;2023-12-20T06:55:20;23.27;;;2.72;;
53263;SDS011;39153;52.680;6.172;2023-12-20T06:57:45;17.60;;;2.80;;
53263;SDS011;39153;52.680;6.172;2023-12-20T07:00:11;26.05;;;4.22;;
53263;SDS011;39153;52.680;6.172;2023-12-20T07:02:37;21.10;;;3.03;;
53263;SDS011;39153;52.680;6.172;2023-12-20T07:05:03;19.00;;;2.78;;
53263;SDS011;39153;52.680;6.172;2023-12-20T07:07:29;24.30;;;4.00;;
53263;SDS011;39153;52.680;6.172;2023-12-20T07:09:55;18.75;;;3.20;;
53263;SDS011;39153;52.680;6.172;2023-12-20T07:12:21;21.63;;;3.50;;
53263;SDS011;39153;52.680;6.172;2023-12-20T07:14:46;21.83;;;3.15;;
53263;SDS011;39153;52.680;6.172;2023-12-20T07:17:12;22.20;;;3.47;;
53263;SDS011;39153;52.680;6.172;2023-12-20T07:19:40;19.38;;;3.40;;
53263;SDS011;39153;52.680;6.172;2023-12-20T07:22:06;24.40;;;3.22;;
53263;SDS011;39153;52.680;6.172;2023-12-20T07:24:32;24.45;;;3.78;;
53263;SDS011;39153;52.680;6.172;2023-12-20T07:26:59;27.10;;;3.28;;
53263;SDS011;39153;52.680;6.172;2023-12-20T07:29:27;26.15;;;3.35;;
53263;SDS011;39153;52.680;6.172;2023-12-20T07:31:53;28.17;;;3.80;;
53263;SDS011;39153;52.680;6.172;2023-12-20T07:34:19;12.93;;;2.67;;
53263;SDS011;39153;52.680;6.172;2023-12-20T07:36:46;23.23;;;3.47;;
53263;SDS011;39153;52.680;6.172;2023-12-20T07:39:12;18.88;;;3.35;;
53263;SDS011;39153;52.680;6.172;2023-12-20T07:41:38;18.25;;;3.22;;
53263;SDS011;39153;52.680;6.172;2023-12-20T07:44:04;26.85;;;3.30;;
53263;SDS011;39153;52.680;6.172;2023-12-20T07:46:29;25.83;;;3.78;;
53263;SDS011;39153;52.680;6.172;2023-12-20T07:48:55;27.58;;;3.38;;
53263;SDS011;39153;52.680;6.172;2023-12-20T07:51:22;23.35;;;3.45;;
53263;SDS011;39153;52.680;6.172;2023-12-20T07:53:48;25.80;;;2.70;;
53263;SDS011;39153;52.680;6.172;2023-12-20T07:56:17;20.00;;;3.08;;
53263;SDS011;39153;52.680;6.172;2023-12-20T07:58:44;22.98;;;4.13;;
53263;SDS011;39153;52.680;6.172;2023-12-20T08:01:11;19.70;;;2.83;;
53263;SDS011;39153;52.680;6.172;2023-12-20T08:03:37;31.00;;;4.70;;
53263;SDS011;39153;52.680;6.172;2023-12-20T08:06:03;17.60;;;3.05;;
53263;SDS011;39153;52.680;6.172;2023-12-20T08:08:29;26.30;;;3.45;;
53263;SDS011;39153;52.680;6.172;2023-12-20T08:10:55;24.27;;;3.33;;
53263;SDS011;39153;52.680;6.172;2023-12-20T08:13:22;21.95;;;3.10;;
53263;SDS011;39153;52.680;6.172;2023-12-20T08:15:51;25.50;;;5.03;;
53263;SDS011;39153;52.680;6.172;2023-12-20T08:18:17;20.75;;;3.40;;
53263;SDS011;39153;52.680;6.172;2023-12-20T08:20:43;18.10;;;3.30;;
53263;SDS011;39153;52.680;6.172;2023-12-20T08:23:08;25.98;;;3.65;;
53263;SDS011;39153;52.680;6.172;2023-12-20T08:25:34;28.10;;;4.57;;
53263;SDS011;39153;52.680;6.172;2023-12-20T08:28:00;23.00;;;3.35;;
53263;SDS011;39153;52.680;6.172;2023-12-20T08:30:27;25.35;;;3.53;;
53263;SDS011;39153;52.680;6.172;2023-12-20T08:32:53;20.08;;;3.20;;
53263;SDS011;39153;52.680;6.172;2023-12-20T08:35:18;19.65;;;3.03;;
53263;SDS011;39153;52.680;6.172;2023-12-20T08:37:45;24.38;;;3.30;;
53263;SDS011;39153;52.680;6.172;2023-12-20T08:40:10;17.98;;;3.40;;
53263;SDS011;39153;52.680;6.172;2023-12-20T08:42:36;17.98;;;3.15;;
53263;SDS011;39153;52.680;6.172;2023-12-20T08:45:02;16.45;;;2.75;;
53263;SDS011;39153;52.680;6.172;2023-12-20T08:47:29;22.73;;;3.50;;
53263;SDS011;39153;52.680;6.172;2023-12-20T08:49:55;24.27;;;3.90;;
53263;SDS011;39153;52.680;6.172;2023-12-20T08:52:23;21.00;;;3.72;;
53263;SDS011;39153;52.680;6.172;2023-12-20T08:54:49;26.45;;;4.32;;
53263;SDS011;39153;52.680;6.172;2023-12-20T08:57:19;20.70;;;3.00;;
53263;SDS011;39153;52.680;6.172;2023-12-20T08:59:46;22.25;;;3.65;;
53263;SDS011;39153;52.680;6.172;2023-12-20T09:02:13;19.33;;;3.40;;
53263;SDS011;39153;52.680;6.172;2023-12-20T09:04:39;21.27;;;4.00;;
53263;SDS011;39153;52.680;6.172;2023-12-20T09:07:05;18.67;;;3.58;;
53263;SDS011;39153;52.680;6.172;2023-12-20T09:09:31;24.55;;;3.00;;
53263;SDS011;39153;52.680;6.172;2023-12-20T09:11:57;23.98;;;3.35;;
53263;SDS011;39153;52.680;6.172;2023-12-20T09:14:23;17.02;;;3.00;;
53263;SDS011;39153;52.680;6.172;2023-12-20T09:16:48;19.85;;;4.13;;
53263;SDS011;39153;52.680;6.172;2023-12-20T09:19:16;23.38;;;3.22;;
53263;SDS011;39153;52.680;6.172;2023-12-20T09:21:42;19.70;;;3.13;;
53263;SDS011;39153;52.680;6.172;2023-12-20T09:24:08;21.92;;;3.80;;
53263;SDS011;39153;52.680;6.172;2023-12-20T09:26:34;20.42;;;2.97;;
53263;SDS011;39153;52.680;6.172;2023-12-20T09:28:59;20.73;;;2.97;;
53263;SDS011;39153;52.680;6.172;2023-12-20T09:31:25;17.95;;;3.05;;
53263;SDS011;39153;52.680;6.172;2023-12-20T09:33:51;22.25;;;2.92;;
53263;SDS011;39153;52.680;6.172;2023-12-20T09:36:17;25.77;;;3.40;;
53263;SDS011;39153;52.680;6.172;2023-12-20T09:38:43;17.88;;;3.22;;
53263;SDS011;39153;52.680;6.172;2023-12-20T09:41:09;17.63;;;2.80;;
53263;SDS011;39153;52.680;6.172;2023-12-20T09:43:35;27.27;;;3.55;;
53263;SDS011;39153;52.680;6.172;2023-12-20T09:46:02;23.38;;;3.05;;
53263;SDS011;39153;52.680;6.172;2023-12-20T09:48:32;23.05;;;3.22;;
53263;SDS011;39153;52.680;6.172;2023-12-20T09:50:58;20.67;;;2.97;;
53263;SDS011;39153;52.680;6.172;2023-12-20T09:53:24;21.52;;;3.28;;
53263;SDS011;39153;52.680;6.172;2023-12-20T09:55:55;18.88;;;2.50;;
53263;SDS011;39153;52.680;6.172;2023-12-20T09:58:25;19.80;;;3.10;;
53263;SDS011;39153;52.680;6.172;2023-12-20T10:00:51;24.00;;;3.05;;
53263;SDS011;39153;52.680;6.172;2023-12-20T10:03:17;22.48;;;3.30;;
53263;SDS011;39153;52.680;6.172;2023-12-20T10:05:48;22.58;;;3.85;;
53263;SDS011;39153;52.680;6.172;2023-12-20T10:08:19;24.95;;;3.42;;
53263;SDS011;39153;52.680;6.172;2023-12-20T10:10:47;14.82;;;2.75;;
53263;SDS011;39153;52.680;6.172;2023-12-20T10:13:13;12.52;;;2.17;;
53263;SDS011;39153;52.680;6.172;2023-12-20T10:15:38;12.80;;;2.25;;
53263;SDS011;39153;52.680;6.172;2023-12-20T10:18:06;7.88;;;1.70;;
53263;SDS011;39153;52.680;6.172;2023-12-20T10:20:32;10.88;;;1.40;;
53263;SDS011;39153;52.680;6.172;2023-12-20T10:22:58;12.13;;;1.48;;
53263;SDS011;39153;52.680;6.172;2023-12-20T10:25:24;15.20;;;1.48;;
53263;SDS011;39153;52.680;6.172;2023-12-20T10:27:51;8.65;;;1.38;;
53263;SDS011;39153;52.680;6.172;2023-12-20T10:30:35;15.27;;;1.92;;
53263;SDS011;39153;52.680;6.172;2023-12-20T10:33:01;10.90;;;1.60;;
53263;SDS011;39153;52.680;6.172;2023-12-20T10:35:26;16.65;;;1.70;;
53263;SDS011;39153;52.680;6.172;2023-12-20T10:37:53;11.68;;;1.48;;
53263;SDS011;39153;52.680;6.172;2023-12-20T10:40:21;12.07;;;1.30;;
53263;SDS011;39153;52.680;6.172;2023-12-20T10:42:48;12.75;;;1.65;;
53263;SDS011;39153;52.680;6.172;2023-12-20T10:45:15;10.75;;;1.30;;
53263;SDS011;39153;52.680;6.172;2023-12-20T10:47:42;14.55;;;1.50;;
53263;SDS011;39153;52.680;6.172;2023-12-20T10:50:11;18.15;;;1.85;;
53263;SDS011;39153;52.680;6.172;2023-12-20T10:52:37;11.07;;;2.08;;
53263;SDS011;39153;52.680;6.172;2023-12-20T10:55:04;12.18;;;1.80;;
53263;SDS011;39153;52.680;6.172;2023-12-20T10:57:30;9.70;;;1.58;;
53263;SDS011;39153;52.680;6.172;2023-12-20T10:59:56;9.73;;;1.65;;
53263;SDS011;39153;52.680;6.172;2023-12-20T11:02:29;15.40;;;1.70;;
53263;SDS011;39153;52.680;6.172;2023-12-20T11:10:48;12.63;;;1.25;;
53263;SDS011;39153;52.680;6.172;2023-12-20T11:13:29;14.93;;;1.60;;
53263;SDS011;39153;52.680;6.172;2023-12-20T11:16:01;16.38;;;2.38;;
53263;SDS011;39153;52.680;6.172;2023-12-20T11:18:31;11.38;;;1.73;;
53263;SDS011;39153;52.680;6.172;2023-12-20T11:21:04;11.82;;;1.70;;
53263;SDS011;39153;52.680;6.172;2023-12-20T11:23:30;7.30;;;0.95;;
53263;SDS011;39153;52.680;6.172;2023-12-20T11:25:59;6.25;;;1.42;;
53263;SDS011;39153;52.680;6.172;2023-12-20T11:28:25;54.88;;;3.60;;
53263;SDS011;39153;52.680;6.172;2023-12-20T11:33:17;11.85;;;1.15;;
53263;SDS011;39153;52.680;6.172;2023-12-20T11:35:50;14.05;;;1.48;;
53263;SDS011;39153;52.680;6.172;2023-12-20T11:38:16;13.23;;;1.48;;
53263;SDS011;39153;52.680;6.172;2023-12-20T11:40:42;11.20;;;1.27;;
53263;SDS011;39153;52.680;6.172;2023-12-20T11:43:09;11.77;;;1.65;;
53263;SDS011;39153;52.680;6.172;2023-12-20T11:45:35;13.93;;;1.10;;
53263;SDS011;39153;52.680;6.172;2023-12-20T11:48:03;10.35;;;1.80;;
53263;SDS011;39153;52.680;6.172;2023-12-20T11:50:31;11.50;;;1.73;;
53263;SDS011;39153;52.680;6.172;2023-12-20T11:52:57;11.85;;;1.30;;
53263;SDS011;39153;52.680;6.172;2023-12-20T11:55:23;8.32;;;1.98;;
53263;SDS011;39153;52.680;6.172;2023-12-20T11:57:49;14.45;;;1.55;;
53263;SDS011;39153;52.680;6.172;2023-12-20T12:00:15;11.55;;;1.95;;
53263;SDS011;39153;52.680;6.172;2023-12-20T12:02:41;12.30;;;1.10;;
53263;SDS011;39153;52.680;6.172;2023-12-20T12:05:07;13.20;;;1.60;;
53263;SDS011;39153;52.680;6.172;2023-12-20T12:07:34;8.32;;;1.17;;
53263;SDS011;39153;52.680;6.172;2023-12-20T12:10:00;11.13;;;1.30;;
53263;SDS011;39153;52.680;6.172;2023-12-20T12:12:26;9.27;;;1.48;;
53263;SDS011;39153;52.680;6.172;2023-12-20T12:14:53;12.77;;;2.17;;
53263;SDS011;39153;52.680;6.172;2023-12-20T12:17:19;8.48;;;1.35;;
53263;SDS011;39153;52.680;6.172;2023-12-20T12:19:45;8.77;;;1.23;;
53263;SDS011;39153;52.680;6.172;2023-12-20T12:22:12;10.52;;;1.33;;
53263;SDS011;39153;52.680;6.172;2023-12-20T12:24:40;13.15;;;1.55;;
53263;SDS011;39153;52.680;6.172;2023-12-20T12:27:10;8.85;;;1.40;;
53263;SDS011;39153;52.680;6.172;2023-12-20T12:29:37;5.43;;;0.95;;
53263;SDS011;39153;52.680;6.172;2023-12-20T12:32:06;6.53;;;1.17;;
53263;SDS011;39153;52.680;6.172;2023-12-20T12:34:33;12.32;;;1.33;;
53263;SDS011;39153;52.680;6.172;2023-12-20T12:37:00;9.55;;;1.30;;
53263;SDS011;39153;52.680;6.172;2023-12-20T12:39:26;9.25;;;1.40;;
53263;SDS011;39153;52.680;6.172;2023-12-20T12:41:52;10.85;;;1.10;;
53263;SDS011;39153;52.680;6.172;2023-12-20T12:44:18;8.43;;;1.20;;
53263;SDS011;39153;52.680;6.172;2023-12-20T12:46:45;12.38;;;1.35;;
53263;SDS011;39153;52.680;6.172;2023-12-20T12:49:11;13.80;;;1.15;;
53263;SDS011;39153;52.680;6.172;2023-12-20T12:51:37;10.43;;;1.73;;
53263;SDS011;39153;52.680;6.172;2023-12-20T12:54:03;18.73;;;1.65;;
53263;SDS011;39153;52.680;6.172;2023-12-20T12:56:29;8.18;;;1.30;;
53263;SDS011;39153;52.680;6.172;2023-12-20T12:58:55;10.40;;;1.25;;
53263;SDS011;39153;52.680;6.172;2023-12-20T13:01:21;10.05;;;1.17;;
53263;SDS011;39153;52.680;6.172;2023-12-20T13:03:47;9.32;;;1.85;;
53263;SDS011;39153;52.680;6.172;2023-12-20T13:06:12;11.32;;;1.40;;
53263;SDS011;39153;52.680;6.172;2023-12-20T13:08:38;11.63;;;1.35;;
53263;SDS011;39153;52.680;6.172;2023-12-20T13:11:04;13.60;;;1.23;;
53263;SDS011;39153;52.680;6.172;2023-12-20T13:13:30;12.73;;;1.33;;
53263;SDS011;39153;52.680;6.172;2023-12-20T13:15:56;12.50;;;1.33;;
53263;SDS011;39153;52.680;6.172;2023-12-20T13:18:22;14.23;;;1.98;;
53263;SDS011;39153;52.680;6.172;2023-12-20T13:20:48;13.68;;;1.70;;
53263;SDS011;39153;52.680;6.172;2023-12-20T13:23:14;10.68;;;1.65;;
53263;SDS011;39153;52.680;6.172;2023-12-20T13:25:41;10.27;;;1.67;;
53263;SDS011;39153;52.680;6.172;2023-12-20T13:28:07;9.18;;;1.40;;
53263;SDS011;39153;52.680;6.172;2023-12-20T13:30:33;11.52;;;1.70;;
53263;SDS011;39153;52.680;6.172;2023-12-20T13:32:59;15.15;;;1.55;;
53263;SDS011;39153;52.680;6.172;2023-12-20T13:35:25;11.52;;;1.77;;
53263;SDS011;39153;52.680;6.172;2023-12-20T13:37:50;14.10;;;1.98;;
53263;SDS011;39153;52.680;6.172;2023-12-20T13:40:16;14.93;;;2.33;;
53263;SDS011;39153;52.680;6.172;2023-12-20T13:42:43;19.27;;;3.83;;
53263;SDS011;39153;52.680;6.172;2023-12-20T13:45:08;19.10;;;2.83;;
53263;SDS011;39153;52.680;6.172;2023-12-20T13:47:35;20.35;;;2.63;;
53263;SDS011;39153;52.680;6.172;2023-12-20T13:50:00;20.20;;;2.88;;
53263;SDS011;39153;52.680;6.172;2023-12-20T13:52:27;14.73;;;2.50;;
53263;SDS011;39153;52.680;6.172;2023-12-20T13:54:53;23.25;;;2.92;;
53263;SDS011;39153;52.680;6.172;2023-12-20T13:57:18;22.90;;;3.53;;
53263;SDS011;39153;52.680;6.172;2023-12-20T13:59:44;24.55;;;2.88;;
53263;SDS011;39153;52.680;6.172;2023-12-20T14:02:10;19.85;;;2.72;;
53263;SDS011;39153;52.680;6.172;2023-12-20T14:04:35;18.52;;;2.67;;
53263;SDS011;39153;52.680;6.172;2023-12-20T14:07:01;20.08;;;3.75;;
53263;SDS011;39153;52.680;6.172;2023-12-20T14:09:27;23.25;;;3.05;;
53263;SDS011;39153;52.680;6.172;2023-12-20T14:11:53;22.02;;;3.15;;
53263;SDS011;39153;52.680;6.172;2023-12-20T14:14:19;22.55;;;3.17;;
53263;SDS011;39153;52.680;6.172;2023-12-20T14:16:45;16.17;;;3.20;;
53263;SDS011;39153;52.680;6.172;2023-12-20T14:19:11;17.73;;;3.03;;
53263;SDS011;39153;52.680;6.172;2023-12-20T14:21:37;25.15;;;3.45;;
53263;SDS011;39153;52.680;6.172;2023-12-20T14:24:03;22.90;;;2.85;;
53263;SDS011;39153;52.680;6.172;2023-12-20T14:26:29;19.73;;;3.08;;
53263;SDS011;39153;52.680;6.172;2023-12-20T14:28:56;17.23;;;2.55;;
53263;SDS011;39153;52.680;6.172;2023-12-20T14:31:22;15.27;;;2.80;;
53263;SDS011;39153;52.680;6.172;2023-12-20T14:33:49;13.75;;;2.05;;
53263;SDS011;39153;52.680;6.172;2023-12-20T14:36:18;17.10;;;2.25;;
53263;SDS011;39153;52.680;6.172;2023-12-20T14:38:45;18.63;;;2.67;;